createdAt,value
2018-05-24T00:01:36.043Z,20.30
2018-05-24T00:04:02.040Z,20.20
2018-05-24T00:06:28.028Z,20.20
2018-05-24T00:08:54.190Z,20.10
2018-05-24T00:11:20.154Z,20.30
2018-05-24T00:13:46.492Z,20.20
2018-05-24T00:16:12.560Z,20.20
2018-05-24T00:18:38.534Z,20.20
2018-05-24T00:21:04.622Z,20.10
2018-05-24T00:23:30.623Z,20.30
2018-05-24T00:25:57.322Z,20.10
2018-05-24T00:28:23.303Z,20.10
2018-05-24T00:30:49.371Z,20.30
2018-05-24T00:33:15.358Z,20.20
2018-05-24T00:35:41.547Z,20.20
2018-05-24T00:38:07.575Z,20.30
2018-05-24T00:40:34.270Z,20.20
2018-05-24T00:43:00.291Z,20.20
2018-05-24T00:45:26.254Z,20.10
2018-05-24T00:47:52.285Z,20.00
2018-05-24T00:50:18.314Z,20.20
2018-05-24T00:52:44.501Z,20.00
2018-05-24T00:55:23.602Z,19.80
2018-05-24T00:57:49.602Z,19.80
2018-05-24T01:00:16.319Z,19.80
2018-05-24T01:02:42.437Z,19.80
2018-05-24T01:05:09.255Z,19.90
2018-05-24T01:07:35.227Z,19.90
2018-05-24T01:10:01.235Z,20.00
2018-05-24T01:12:27.199Z,19.90
2018-05-24T01:14:53.334Z,19.90
2018-05-24T01:17:19.453Z,19.90
2018-05-24T01:19:45.447Z,19.70
2018-05-24T01:22:11.487Z,19.70
2018-05-24T01:24:37.493Z,19.80
2018-05-24T01:27:04.391Z,19.70
2018-05-24T01:29:30.498Z,19.70
2018-05-24T01:31:56.538Z,19.50
2018-05-24T01:34:22.503Z,19.40
2018-05-24T01:37:00.862Z,19.40
2018-05-24T01:39:26.846Z,19.30
2018-05-24T01:41:52.851Z,19.20
2018-05-24T01:44:18.818Z,19.20
2018-05-24T01:46:44.819Z,19.30
2018-05-24T01:49:10.798Z,19.30
2018-05-24T01:51:36.831Z,19.20
2018-05-24T01:54:02.814Z,19.20
2018-05-24T01:56:28.831Z,19.10
2018-05-24T01:58:55.634Z,19.20
2018-05-24T02:01:21.627Z,19.20
2018-05-24T02:03:48.333Z,18.80
2018-05-24T02:06:14.348Z,18.80
2018-05-24T02:08:40.347Z,18.80
2018-05-24T02:11:07.055Z,19.00
2018-05-24T02:13:33.048Z,19.00
2018-05-24T02:15:59.799Z,18.80
2018-05-24T02:18:26.534Z,18.90
2018-05-24T02:20:52.507Z,18.80
2018-05-24T02:23:18.497Z,18.90
2018-05-24T02:25:44.472Z,18.90
2018-05-24T02:28:11.261Z,18.70
2018-05-24T02:30:37.267Z,18.60
2018-05-24T02:33:03.259Z,18.80
2018-05-24T02:35:29.283Z,18.60
2018-05-24T02:37:55.270Z,18.70
2018-05-24T02:40:21.997Z,18.70
2018-05-24T02:42:47.968Z,18.70
2018-05-24T02:45:13.994Z,18.60
2018-05-24T02:47:40.755Z,18.50
2018-05-24T02:50:06.774Z,18.50
2018-05-24T02:52:33.491Z,18.50
2018-05-24T02:54:59.486Z,18.40
2018-05-24T02:57:25.641Z,18.50
2018-05-24T02:59:51.635Z,18.30
2018-05-24T03:02:17.613Z,18.20
2018-05-24T03:04:43.649Z,18.40
2018-05-24T03:07:09.742Z,18.30
2018-05-24T03:09:35.752Z,18.30
2018-05-24T03:12:01.755Z,18.60
2018-05-24T03:14:27.755Z,18.40
2018-05-24T03:16:53.748Z,18.50
2018-05-24T03:19:19.718Z,18.50
2018-05-24T03:21:45.719Z,18.50
2018-05-24T03:24:11.739Z,18.50
2018-05-24T03:26:37.719Z,18.40
2018-05-24T03:29:03.752Z,18.40
2018-05-24T03:31:29.740Z,18.40
2018-05-24T03:33:55.695Z,18.40
2018-05-24T03:36:21.737Z,18.40
2018-05-24T03:38:47.843Z,18.50
2018-05-24T03:41:14.585Z,18.30
2018-05-24T03:43:41.356Z,18.50
2018-05-24T03:46:07.331Z,18.40
2018-05-24T03:48:33.288Z,18.40
2018-05-24T03:50:59.293Z,18.40
2018-05-24T03:53:25.363Z,18.40
2018-05-24T03:55:51.330Z,18.30
2018-05-24T03:58:17.339Z,18.40
2018-05-24T04:00:55.671Z,18.40
2018-05-24T04:03:34.015Z,18.60
2018-05-24T04:06:00.055Z,18.80
2018-05-24T04:08:26.770Z,18.70
2018-05-24T04:10:52.807Z,18.60
2018-05-24T04:13:18.790Z,18.70
2018-05-24T04:15:44.829Z,18.80
2018-05-24T04:18:10.953Z,18.80
2018-05-24T04:20:36.920Z,18.80
2018-05-24T04:23:02.913Z,18.70
2018-05-24T04:25:28.868Z,18.90
2018-05-24T04:27:55.606Z,18.80
2018-05-24T04:30:22.358Z,18.80
2018-05-24T04:32:49.103Z,18.70
2018-05-24T04:35:15.085Z,18.70
2018-05-24T04:37:41.128Z,18.70
2018-05-24T04:40:07.229Z,18.70
2018-05-24T04:42:34.047Z,18.80
2018-05-24T04:45:00.007Z,18.80
2018-05-24T04:47:26.003Z,18.80
2018-05-24T04:49:52.051Z,18.50
2018-05-24T04:52:18.067Z,18.50
2018-05-24T04:54:44.035Z,18.60
2018-05-24T04:57:10.056Z,18.60
2018-05-24T04:59:36.083Z,18.60
2018-05-24T05:02:02.074Z,18.50
2018-05-24T05:04:28.959Z,18.40
2018-05-24T05:06:54.963Z,18.40
2018-05-24T05:09:20.964Z,18.50
2018-05-24T05:11:46.961Z,18.50
2018-05-24T05:14:13.076Z,18.70
2018-05-24T05:16:39.120Z,18.80
2018-05-24T05:19:05.844Z,18.90
2018-05-24T05:21:31.867Z,18.90
2018-05-24T05:23:57.826Z,18.90
2018-05-24T05:26:23.948Z,18.90
2018-05-24T05:28:49.939Z,19.00
2018-05-24T05:31:15.927Z,19.00
2018-05-24T05:33:42.655Z,19.00
2018-05-24T05:36:08.749Z,19.00
2018-05-24T05:38:35.488Z,19.00
2018-05-24T05:41:01.447Z,19.00
2018-05-24T05:43:28.175Z,19.20
2018-05-24T05:45:54.135Z,19.10
2018-05-24T05:48:20.906Z,19.50
2018-05-24T05:50:46.951Z,19.50
2018-05-24T05:53:12.911Z,19.60
2018-05-24T05:55:38.947Z,19.70
2018-05-24T05:58:05.691Z,19.50
2018-05-24T06:00:31.649Z,19.50
2018-05-24T06:02:57.830Z,19.70
2018-05-24T06:05:24.563Z,19.80
2018-05-24T06:07:50.529Z,19.80
2018-05-24T06:10:16.527Z,19.90
2018-05-24T06:12:42.487Z,19.90
2018-05-24T06:15:08.470Z,19.80
2018-05-24T06:17:35.207Z,20.00
2018-05-24T06:20:01.157Z,20.00
2018-05-24T06:22:27.853Z,20.10
2018-05-24T06:24:53.889Z,20.10
2018-05-24T06:27:19.848Z,20.20
2018-05-24T06:29:45.831Z,20.00
2018-05-24T06:32:12.540Z,20.40
2018-05-24T06:34:38.534Z,20.40
2018-05-24T06:37:04.503Z,20.50
2018-05-24T06:39:30.507Z,20.70
2018-05-24T06:41:56.465Z,20.80
2018-05-24T06:44:22.489Z,20.90
2018-05-24T06:46:48.482Z,21.00
2018-05-24T06:49:14.443Z,21.20
2018-05-24T06:51:40.468Z,21.30
2018-05-24T06:54:07.191Z,21.40
2018-05-24T06:56:33.177Z,21.40
2018-05-24T06:58:59.124Z,21.30
2018-05-24T07:01:25.152Z,21.10
2018-05-24T07:03:51.131Z,21.10
2018-05-24T07:06:17.082Z,21.20
2018-05-24T07:08:43.072Z,21.40
2018-05-24T07:11:09.171Z,21.50
2018-05-24T07:13:35.160Z,21.50
2018-05-24T07:16:01.123Z,21.50
2018-05-24T07:18:27.219Z,21.60
2018-05-24T07:20:53.116Z,21.80
2018-05-24T07:23:19.811Z,21.90
2018-05-24T07:25:45.813Z,21.90
2018-05-24T07:28:12.503Z,21.80
2018-05-24T07:30:38.683Z,21.80
2018-05-24T07:33:05.667Z,21.70
2018-05-24T07:35:31.704Z,21.70
2018-05-24T07:37:58.454Z,22.00
2018-05-24T07:40:25.175Z,22.00
2018-05-24T07:42:51.167Z,22.00
2018-05-24T07:45:17.847Z,22.00
2018-05-24T07:47:43.851Z,22.10
2018-05-24T07:50:09.853Z,22.00
2018-05-24T07:52:35.887Z,22.00
2018-05-24T07:55:01.870Z,22.00
2018-05-24T07:57:27.818Z,22.10
2018-05-24T07:59:53.796Z,22.20
2018-05-24T08:02:20.547Z,22.40
2018-05-24T08:04:49.872Z,22.50
2018-05-24T08:07:15.863Z,22.50
2018-05-24T08:09:41.824Z,22.30
2018-05-24T08:12:07.828Z,22.30
2018-05-24T08:14:33.818Z,22.30
2018-05-24T08:16:59.795Z,22.50
2018-05-24T08:19:25.775Z,22.60
2018-05-24T08:21:51.774Z,22.90
2018-05-24T08:24:17.755Z,22.90
2018-05-24T08:26:43.836Z,22.50
2018-05-24T08:29:09.852Z,22.70
2018-05-24T08:31:36.554Z,23.30
2018-05-24T08:34:02.556Z,23.30
2018-05-24T08:36:28.514Z,23.50
2018-05-24T08:38:54.520Z,23.80
2018-05-24T08:41:20.480Z,24.00
2018-05-24T08:43:46.438Z,24.00
2018-05-24T08:46:12.441Z,24.20
2018-05-24T08:48:38.424Z,24.30
2018-05-24T08:51:04.379Z,24.30
2018-05-24T08:53:30.407Z,24.40
2018-05-24T08:55:56.343Z,24.50
2018-05-24T08:58:22.328Z,24.40
2018-05-24T09:00:48.332Z,24.60
2018-05-24T09:03:15.060Z,24.40
2018-05-24T09:05:41.036Z,24.40
2018-05-24T09:08:07.080Z,24.40
2018-05-24T09:10:33.072Z,24.40
2018-05-24T09:12:59.037Z,24.20
2018-05-24T09:15:25.800Z,24.40
2018-05-24T09:17:51.755Z,24.40
2018-05-24T09:20:17.768Z,24.50
2018-05-24T09:22:44.451Z,24.70
2018-05-24T09:25:10.451Z,24.60
2018-05-24T09:27:37.183Z,24.50
2018-05-24T09:30:03.163Z,24.50
2018-05-24T09:32:29.121Z,24.50
2018-05-24T09:34:55.123Z,24.50
2018-05-24T09:37:21.115Z,24.40
2018-05-24T09:39:47.071Z,24.50
2018-05-24T09:42:13.064Z,24.50
2018-05-24T09:44:39.055Z,24.70
2018-05-24T09:47:05.785Z,25.00
2018-05-24T09:49:31.764Z,25.00
2018-05-24T09:51:57.762Z,25.20
2018-05-24T09:54:23.771Z,25.20
2018-05-24T09:56:49.728Z,25.10
2018-05-24T09:59:15.725Z,25.20
2018-05-24T10:01:41.687Z,25.30
2018-05-24T10:04:07.731Z,25.40
2018-05-24T10:06:33.695Z,25.70
2018-05-24T10:09:00.475Z,25.80
2018-05-24T10:11:26.434Z,25.70
2018-05-24T10:13:52.422Z,25.60
2018-05-24T10:16:19.219Z,25.70
2018-05-24T10:18:45.150Z,25.60
2018-05-24T10:21:11.120Z,25.60
2018-05-24T10:23:37.168Z,25.70
2018-05-24T10:26:03.132Z,25.90
2018-05-24T10:28:29.831Z,26.00
2018-05-24T10:30:56.572Z,26.10
2018-05-24T10:33:22.523Z,26.10
2018-05-24T10:35:48.511Z,26.10
2018-05-24T10:38:15.206Z,26.30
2018-05-24T10:40:41.212Z,26.30
2018-05-24T10:43:07.222Z,26.10
2018-05-24T10:45:33.963Z,25.80
2018-05-24T10:48:01.395Z,25.90
2018-05-24T10:50:27.347Z,25.90
2018-05-24T10:52:53.343Z,26.00
2018-05-24T10:55:19.292Z,25.90
2018-05-24T10:57:45.251Z,26.10
2018-05-24T11:00:11.227Z,26.10
2018-05-24T11:02:37.288Z,26.20
2018-05-24T11:05:03.217Z,26.30
2018-05-24T11:07:29.167Z,25.90
2018-05-24T11:09:55.148Z,25.90
2018-05-24T11:12:21.184Z,26.10
2018-05-24T11:14:47.175Z,26.30
2018-05-24T11:17:13.124Z,26.10
2018-05-24T11:19:39.192Z,26.20
2018-05-24T11:22:05.887Z,26.30
2018-05-24T11:24:31.870Z,26.30
2018-05-24T11:26:57.828Z,26.50
2018-05-24T11:29:23.835Z,26.60
2018-05-24T11:31:49.848Z,26.50
2018-05-24T11:34:16.575Z,26.00
2018-05-24T11:36:43.259Z,26.30
2018-05-24T11:39:09.287Z,26.30
2018-05-24T11:41:35.342Z,26.30
2018-05-24T11:44:01.300Z,26.60
2018-05-24T11:46:27.303Z,26.70
2018-05-24T11:48:53.275Z,26.90
2018-05-24T11:51:19.294Z,26.90
2018-05-24T11:53:45.247Z,27.10
2018-05-24T11:56:11.236Z,27.00
2018-05-24T11:58:37.635Z,26.80
2018-05-24T12:01:03.635Z,27.20
2018-05-24T12:08:25.191Z,27.90
2018-05-24T12:10:51.957Z,28.30
2018-05-24T12:13:18.687Z,28.70
2018-05-24T12:15:44.647Z,28.80
2018-05-24T12:18:11.366Z,29.70
2018-05-24T12:20:38.836Z,29.60
2018-05-24T12:23:04.818Z,29.60
2018-05-24T12:25:30.827Z,30.30
2018-05-24T12:27:56.803Z,31.10
2018-05-24T12:30:22.747Z,31.70
2018-05-24T12:32:48.742Z,32.40
2018-05-24T12:35:15.578Z,33.20
2018-05-24T12:37:41.430Z,33.10
2018-05-24T12:40:08.191Z,33.50
2018-05-24T12:42:34.884Z,34.10
2018-05-24T12:45:00.887Z,34.10
2018-05-24T12:47:27.574Z,34.60
2018-05-24T12:49:53.583Z,34.60
2018-05-24T12:52:19.531Z,34.70
2018-05-24T12:54:45.513Z,34.10
2018-05-24T12:57:11.513Z,34.20
2018-05-24T12:59:37.471Z,34.70
2018-05-24T13:02:03.451Z,34.90
2018-05-24T13:04:30.187Z,36.50
2018-05-24T13:06:56.168Z,36.50
2018-05-24T13:09:22.129Z,36.60
2018-05-24T13:11:48.111Z,35.40
2018-05-24T13:14:14.846Z,33.10
2018-05-24T13:16:40.843Z,33.00
2018-05-24T13:19:06.870Z,32.30
2018-05-24T13:21:32.824Z,32.20
2018-05-24T13:23:58.798Z,32.20
2018-05-24T13:26:25.899Z,33.80
2018-05-24T13:28:51.879Z,33.80
2018-05-24T13:31:17.875Z,35.40
2018-05-24T13:33:43.822Z,36.00
2018-05-24T13:36:09.814Z,36.70
2018-05-24T13:38:36.552Z,36.80
2018-05-24T13:41:03.251Z,36.80
2018-05-24T13:43:29.263Z,36.80
2018-05-24T13:45:56.009Z,36.00
2018-05-24T13:48:22.743Z,35.10
2018-05-24T13:50:48.720Z,35.10
2018-05-24T13:53:14.720Z,35.50
2018-05-24T13:55:40.725Z,35.20
2018-05-24T13:58:06.759Z,35.30
2018-05-24T14:00:32.711Z,35.50
2018-05-24T14:02:58.691Z,34.90
2018-05-24T14:05:25.439Z,33.10
2018-05-24T14:07:52.139Z,32.30
2018-05-24T14:10:18.091Z,32.20
2018-05-24T14:12:44.075Z,31.70
2018-05-24T14:15:10.086Z,31.30
2018-05-24T14:17:36.142Z,30.80
2018-05-24T14:20:02.822Z,30.00
2018-05-24T14:22:28.802Z,30.00
2018-05-24T14:24:54.778Z,29.90
2018-05-24T14:27:20.759Z,29.90
2018-05-24T14:29:46.730Z,29.60
2018-05-24T14:32:13.422Z,29.40
2018-05-24T14:34:39.425Z,29.30
2018-05-24T14:37:05.491Z,29.20
2018-05-24T14:39:31.499Z,28.80
2018-05-24T14:41:58.191Z,28.50
2018-05-24T14:44:24.211Z,28.40
2018-05-24T14:46:50.232Z,28.30
2018-05-24T14:49:16.963Z,27.60
2018-05-24T14:51:42.914Z,27.50
2018-05-24T14:54:09.659Z,27.50
2018-05-24T14:56:35.639Z,27.50
2018-05-24T14:59:01.626Z,27.30
2018-05-24T15:01:27.606Z,27.30
2018-05-24T15:03:53.567Z,27.10
2018-05-24T15:06:19.546Z,27.20
2018-05-24T15:08:45.519Z,27.60
2018-05-24T15:11:11.555Z,27.80
2018-05-24T15:13:49.739Z,28.00
2018-05-24T15:16:16.458Z,27.90
2018-05-24T15:18:42.415Z,27.90
2018-05-24T15:21:08.455Z,28.00
2018-05-24T15:23:34.411Z,27.70
2018-05-24T15:26:01.130Z,27.30
2018-05-24T15:28:27.140Z,27.20
2018-05-24T15:30:53.123Z,27.20
2018-05-24T15:33:19.160Z,27.30
2018-05-24T15:35:45.104Z,27.10
2018-05-24T15:38:11.804Z,27.10
2018-05-24T15:40:37.877Z,27.10
2018-05-24T15:43:03.830Z,26.80
2018-05-24T15:45:30.536Z,26.50
2018-05-24T15:47:56.540Z,26.40
2018-05-24T15:50:23.260Z,26.40
2018-05-24T15:52:49.216Z,26.30
2018-05-24T15:55:15.956Z,26.30
2018-05-24T15:57:41.950Z,26.20
2018-05-24T16:00:07.911Z,26.50
2018-05-24T16:02:33.858Z,26.40
2018-05-24T16:04:59.863Z,26.20
2018-05-24T16:07:25.811Z,26.20
2018-05-24T16:09:51.788Z,26.20
2018-05-24T16:12:18.475Z,26.20
2018-05-24T16:14:44.454Z,26.10
2018-05-24T16:17:10.431Z,26.20
2018-05-24T16:19:36.407Z,26.00
2018-05-24T16:22:02.355Z,25.90
2018-05-24T16:24:28.314Z,25.60
2018-05-24T16:26:54.324Z,25.40
2018-05-24T16:29:20.306Z,25.30
2018-05-24T16:31:47.000Z,25.30
2018-05-24T16:34:12.966Z,25.30
2018-05-24T16:36:38.991Z,25.30
2018-05-24T16:39:05.687Z,25.00
2018-05-24T16:41:31.632Z,25.00
2018-05-24T16:43:57.611Z,25.00
2018-05-24T16:46:23.603Z,25.00
2018-05-24T16:48:49.583Z,25.00
2018-05-24T16:51:15.524Z,25.00
2018-05-24T16:53:41.867Z,25.00
2018-05-24T16:56:07.864Z,24.90
2018-05-24T16:58:33.843Z,24.80
2018-05-24T17:00:59.791Z,24.80
2018-05-24T17:03:25.787Z,24.70
2018-05-24T17:05:51.983Z,24.80
2018-05-24T17:08:18.689Z,24.50
2018-05-24T17:10:44.677Z,24.50
2018-05-24T17:13:11.428Z,24.60
2018-05-24T17:15:38.158Z,24.60
2018-05-24T17:18:04.224Z,24.60
2018-05-24T17:20:30.951Z,24.50
2018-05-24T17:22:56.935Z,24.50
2018-05-24T17:25:22.882Z,24.40
2018-05-24T17:27:48.863Z,24.30
2018-05-24T17:30:14.816Z,24.20
2018-05-24T17:32:41.556Z,24.00
2018-05-24T17:35:08.395Z,24.10
2018-05-24T17:37:34.380Z,24.00
2018-05-24T17:40:00.327Z,23.90
2018-05-24T17:42:26.299Z,23.80
2018-05-24T17:44:52.282Z,23.60
2018-05-24T17:47:18.264Z,23.80
2018-05-24T17:49:44.239Z,23.80
2018-05-24T17:52:10.974Z,23.80
2018-05-24T17:54:36.963Z,23.80
2018-05-24T17:57:02.932Z,23.80
2018-05-24T17:59:28.878Z,23.80
2018-05-24T18:01:54.879Z,23.70
2018-05-24T18:04:20.878Z,23.70
2018-05-24T18:06:47.566Z,23.50
2018-05-24T18:09:13.542Z,23.50
2018-05-24T18:11:39.539Z,23.50
2018-05-24T18:14:05.486Z,23.50
2018-05-24T18:16:31.466Z,23.30
2018-05-24T18:18:58.194Z,23.30
2018-05-24T18:21:24.150Z,23.30
2018-05-24T18:23:50.848Z,23.20
2018-05-24T18:26:16.823Z,23.20
2018-05-24T18:28:42.807Z,23.20
2018-05-24T18:31:08.798Z,23.20
2018-05-24T18:33:34.751Z,23.10
2018-05-24T18:36:01.618Z,23.10
2018-05-24T18:38:27.570Z,23.10
2018-05-24T18:40:53.526Z,22.90
2018-05-24T18:43:20.214Z,22.80
2018-05-24T18:45:46.186Z,22.80
2018-05-24T18:48:12.167Z,22.80
2018-05-24T18:50:38.212Z,22.80
2018-05-24T18:53:04.191Z,22.90
2018-05-24T18:55:30.874Z,22.60
2018-05-24T18:57:56.837Z,22.60
2018-05-24T19:00:22.783Z,22.60
2018-05-24T19:02:48.767Z,22.60
2018-05-24T19:05:14.711Z,22.50
2018-05-24T19:07:40.739Z,22.40
2018-05-24T19:10:06.738Z,22.30
2018-05-24T19:12:33.459Z,22.30
2018-05-24T19:14:59.410Z,22.30
2018-05-24T19:17:25.391Z,22.10
2018-05-24T19:19:51.368Z,22.10
2018-05-24T19:22:17.332Z,22.10
2018-05-24T19:24:43.311Z,22.00
2018-05-24T19:27:09.311Z,22.10
2018-05-24T19:29:35.335Z,22.10
2018-05-24T19:32:01.266Z,22.00
2018-05-24T19:34:27.243Z,21.90
2018-05-24T19:36:53.268Z,21.80
2018-05-24T19:39:20.775Z,21.80
2018-05-24T19:41:46.719Z,21.80
2018-05-24T19:44:12.691Z,21.80
2018-05-24T19:46:38.706Z,21.80
2018-05-24T19:49:04.679Z,21.90
2018-05-24T19:51:31.395Z,21.70
2018-05-24T19:53:57.343Z,21.60
2018-05-24T19:56:23.330Z,21.60
2018-05-24T19:58:49.297Z,21.60
2018-05-24T20:01:15.283Z,21.60
2018-05-24T20:03:41.999Z,21.40
2018-05-24T20:06:08.015Z,21.40
2018-05-24T20:08:33.967Z,21.50
2018-05-24T20:10:59.950Z,21.40
2018-05-24T20:13:26.646Z,21.20
2018-05-24T20:15:52.623Z,21.20
2018-05-24T20:18:18.559Z,21.20
2018-05-24T20:20:44.543Z,21.10
2018-05-24T20:23:10.548Z,21.00
2018-05-24T20:25:36.500Z,20.90
2018-05-24T20:28:02.461Z,21.00
2018-05-24T20:30:28.438Z,21.10
2018-05-24T20:32:54.522Z,21.00
2018-05-24T20:35:21.174Z,21.00
2018-05-24T20:37:47.124Z,21.00
2018-05-24T20:40:13.122Z,20.90
2018-05-24T20:42:39.843Z,20.70
2018-05-24T20:45:05.787Z,20.70
2018-05-24T20:47:31.759Z,20.70
2018-05-24T20:49:57.706Z,20.60
2018-05-24T20:52:23.672Z,20.60
2018-05-24T20:54:49.650Z,20.70
2018-05-24T20:57:16.408Z,20.60
2018-05-24T20:59:42.395Z,20.60
2018-05-24T21:02:08.383Z,20.50
2018-05-24T21:04:34.350Z,20.50
2018-05-24T21:07:00.298Z,20.30
2018-05-24T21:09:26.283Z,20.20
2018-05-24T21:11:52.973Z,20.20
2018-05-24T21:14:18.965Z,20.20
2018-05-24T21:16:45.659Z,20.00
2018-05-24T21:19:11.655Z,20.00
2018-05-24T21:21:38.362Z,20.00
2018-05-24T21:24:05.091Z,20.00
2018-05-24T21:26:31.043Z,20.00
2018-05-24T21:28:57.024Z,19.90
2018-05-24T21:31:22.998Z,19.90
2018-05-24T21:33:48.948Z,20.00
2018-05-24T21:36:14.931Z,19.90
2018-05-24T21:38:40.907Z,20.10
2018-05-24T21:41:06.883Z,19.90
2018-05-24T21:43:32.829Z,19.80
2018-05-24T21:45:58.800Z,19.90
2018-05-24T21:48:24.788Z,19.70
2018-05-24T21:50:50.776Z,19.50
2018-05-24T21:53:16.722Z,19.50
2018-05-24T21:55:42.703Z,19.40
2018-05-24T21:58:08.707Z,19.40
2018-05-24T22:00:34.694Z,19.20
2018-05-24T22:03:00.675Z,19.20
2018-05-24T22:05:26.614Z,19.20
2018-05-24T22:07:52.590Z,19.20
2018-05-24T22:10:18.564Z,19.40
2018-05-24T22:12:45.279Z,19.40
2018-05-24T22:15:11.264Z,19.40
2018-05-24T22:17:37.233Z,19.30
2018-05-24T22:20:03.204Z,19.10
2018-05-24T22:22:29.894Z,19.10
2018-05-24T22:24:55.905Z,19.00
2018-05-24T22:27:21.854Z,19.20
2018-05-24T22:29:47.837Z,19.10
2018-05-24T22:32:13.795Z,19.00
2018-05-24T22:34:39.815Z,19.10
2018-05-24T22:37:05.761Z,19.00
2018-05-24T22:39:31.739Z,19.00
2018-05-24T22:41:57.722Z,19.00
2018-05-24T22:44:23.702Z,18.90
2018-05-24T22:46:49.661Z,19.00
2018-05-24T22:49:15.608Z,18.90
2018-05-24T22:51:41.613Z,19.00
2018-05-24T22:54:07.644Z,18.80
2018-05-24T22:56:33.626Z,18.80
2018-05-24T22:58:59.570Z,18.80
2018-05-24T23:01:25.555Z,18.80
2018-05-24T23:03:51.503Z,18.70
2018-05-24T23:06:17.478Z,18.60
2018-05-24T23:08:43.423Z,18.80
2018-05-24T23:11:09.478Z,18.80
2018-05-24T23:13:36.174Z,18.70
2018-05-24T23:16:02.168Z,18.70
2018-05-24T23:18:28.899Z,18.60
2018-05-24T23:20:54.867Z,18.60
2018-05-24T23:23:21.595Z,18.70
2018-05-24T23:25:47.551Z,18.70
2018-05-24T23:28:14.275Z,18.50
2018-05-24T23:30:40.243Z,18.50
2018-05-24T23:33:06.962Z,18.40
2018-05-24T23:35:32.910Z,18.40
2018-05-24T23:37:58.890Z,18.50
2018-05-24T23:40:24.869Z,18.30
2018-05-24T23:42:50.876Z,18.40
2018-05-24T23:45:16.860Z,18.40
2018-05-24T23:47:42.807Z,18.40
2018-05-24T23:50:08.805Z,18.50
2018-05-24T23:52:34.807Z,18.60
2018-05-24T23:55:00.751Z,18.60
2018-05-24T23:57:26.726Z,18.80
2018-05-24T23:59:52.699Z,18.80
